createdAt,value
2017-12-28T00:00:15.259Z,0
2017-12-28T00:01:14.709Z,0
2017-12-28T00:02:14.688Z,0
2017-12-28T00:03:15.195Z,0
2017-12-28T00:04:15.178Z,0
2017-12-28T00:05:14.884Z,0
2017-12-28T00:06:15.135Z,0
2017-12-28T00:07:15.372Z,0
2017-12-28T00:08:15.357Z,0
2017-12-28T00:09:14.800Z,0
2017-12-28T00:10:14.258Z,0
2017-12-28T00:11:14.232Z,0
2017-12-28T00:12:14.734Z,0
2017-12-28T00:13:14.723Z,0
2017-12-28T00:14:14.703Z,0
2017-12-28T00:15:15.402Z,0
2017-12-28T00:16:14.397Z,0
2017-12-28T00:17:14.896Z,0
2017-12-28T00:18:14.928Z,0
2017-12-28T00:19:14.858Z,0
2017-12-28T00:20:14.577Z,0
2017-12-28T00:21:14.550Z,0
2017-12-28T00:22:14.528Z,0
2017-12-28T00:23:14.764Z,0
2017-12-28T00:24:14.216Z,0
2017-12-28T00:25:14.459Z,0
2017-12-28T00:26:14.704Z,0
2017-12-28T00:27:14.152Z,0
2017-12-28T00:28:14.393Z,0
2017-12-28T00:29:14.646Z,0
2017-12-28T00:30:13.828Z,0
2017-12-28T00:31:14.334Z,0
2017-12-28T00:32:14.057Z,0
2017-12-28T00:33:14.034Z,0
2017-12-28T00:34:14.535Z,0
2017-12-28T00:35:14.513Z,0
2017-12-28T00:36:14.496Z,0
2017-12-28T00:37:14.729Z,0
2017-12-28T00:38:14.188Z,0
2017-12-28T00:39:13.894Z,0
2017-12-28T00:40:14.430Z,0
2017-12-28T00:41:14.168Z,0
2017-12-28T00:42:13.869Z,0
2017-12-28T00:43:13.814Z,0
2017-12-28T00:44:13.522Z,0
2017-12-28T00:45:13.765Z,0
2017-12-28T00:46:14.550Z,0
2017-12-28T00:47:14.250Z,0
2017-12-28T00:48:13.705Z,0
2017-12-28T00:49:14.249Z,0
2017-12-28T00:50:14.455Z,0
2017-12-28T00:51:14.428Z,0
2017-12-28T00:52:14.427Z,0
2017-12-28T00:53:14.124Z,0
2017-12-28T00:54:13.870Z,0
2017-12-28T00:55:14.073Z,0
2017-12-28T00:56:13.526Z,0
2017-12-28T00:57:13.771Z,0
2017-12-28T00:58:13.749Z,0
2017-12-28T00:59:13.734Z,0
2017-12-28T01:00:13.740Z,0
2017-12-28T01:01:13.687Z,0
2017-12-28T01:02:13.679Z,0
2017-12-28T01:03:13.643Z,0
2017-12-28T01:04:13.675Z,0
2017-12-28T01:05:13.864Z,0
2017-12-28T01:06:13.570Z,0
2017-12-28T01:07:13.548Z,0
2017-12-28T01:08:13.799Z,0
2017-12-28T01:09:14.040Z,0
2017-12-28T01:10:13.234Z,0
2017-12-28T01:11:13.996Z,0
2017-12-28T01:12:13.455Z,0
2017-12-28T01:13:13.426Z,0
2017-12-28T01:14:13.671Z,0
2017-12-28T01:15:13.115Z,0
2017-12-28T01:16:13.369Z,0
2017-12-28T01:17:13.332Z,0
2017-12-28T01:18:13.052Z,0
2017-12-28T01:19:13.824Z,0
2017-12-28T01:20:13.797Z,0
2017-12-28T01:21:13.778Z,0
2017-12-28T01:22:13.238Z,0
2017-12-28T01:23:13.203Z,0
2017-12-28T01:24:13.444Z,0
2017-12-28T01:25:13.159Z,0
2017-12-28T01:26:13.146Z,0
2017-12-28T01:27:13.117Z,0
2017-12-28T01:28:12.828Z,0
2017-12-28T01:29:13.349Z,0
2017-12-28T01:30:13.322Z,0
2017-12-28T01:31:13.298Z,0
2017-12-28T01:32:13.328Z,0
2017-12-28T01:33:13.260Z,0
2017-12-28T01:34:12.963Z,0
2017-12-28T01:35:12.682Z,0
2017-12-28T01:36:12.933Z,0
2017-12-28T01:37:13.429Z,0
2017-12-28T01:38:13.144Z,0
2017-12-28T01:39:12.596Z,0
2017-12-28T01:40:12.837Z,0
2017-12-28T01:41:12.810Z,0
2017-12-28T01:42:12.799Z,0
2017-12-28T01:43:13.030Z,0
2017-12-28T01:44:12.221Z,0
2017-12-28T01:45:12.466Z,0
2017-12-28T01:46:13.244Z,0
2017-12-28T01:47:12.690Z,0
2017-12-28T01:48:12.136Z,0
2017-12-28T01:49:12.915Z,0
2017-12-28T01:50:13.142Z,0
2017-12-28T01:51:12.119Z,0
2017-12-28T01:52:12.838Z,0
2017-12-28T01:53:12.812Z,0
2017-12-28T01:54:13.054Z,0
2017-12-28T01:55:12.504Z,0
2017-12-28T01:56:12.484Z,0
2017-12-28T01:57:12.199Z,0
2017-12-28T01:58:12.440Z,0
2017-12-28T01:59:12.424Z,0
2017-12-28T02:00:11.929Z,0
2017-12-28T02:01:12.915Z,0
2017-12-28T02:02:12.357Z,0
2017-12-28T02:03:12.346Z,0
2017-12-28T02:04:12.573Z,0
2017-12-28T02:05:12.551Z,0
2017-12-28T02:06:12.000Z,0
2017-12-28T02:07:11.990Z,0
2017-12-28T02:08:12.224Z,0
2017-12-28T02:09:12.204Z,0
2017-12-28T02:10:11.921Z,0
2017-12-28T02:11:11.891Z,0
2017-12-28T02:12:12.130Z,0
2017-12-28T02:13:12.383Z,0
2017-12-28T02:14:11.855Z,0
2017-12-28T02:15:12.280Z,0
2017-12-28T02:16:12.048Z,0
2017-12-28T02:17:11.754Z,0
2017-12-28T02:18:11.739Z,0
2017-12-28T02:19:11.720Z,0
2017-12-28T02:20:12.214Z,0
2017-12-28T02:21:11.411Z,0
2017-12-28T02:22:12.198Z,0
2017-12-28T02:23:11.890Z,0
2017-12-28T02:24:12.405Z,0
2017-12-28T02:25:11.580Z,0
2017-12-28T02:26:12.088Z,0
2017-12-28T02:27:12.058Z,0
2017-12-28T02:28:11.792Z,0
2017-12-28T02:29:11.494Z,0
2017-12-28T02:30:11.754Z,0
2017-12-28T02:31:11.710Z,0
2017-12-28T02:32:11.960Z,0
2017-12-28T02:33:12.006Z,0
2017-12-28T02:34:11.921Z,0
2017-12-28T02:35:11.890Z,0
2017-12-28T02:36:11.612Z,0
2017-12-28T02:37:11.322Z,0
2017-12-28T02:38:11.826Z,0
2017-12-28T02:39:11.799Z,0
2017-12-28T02:40:11.798Z,0
2017-12-28T02:41:12.014Z,0
2017-12-28T02:42:11.204Z,0
2017-12-28T02:43:11.179Z,0
2017-12-28T02:44:11.956Z,0
2017-12-28T02:45:11.410Z,0
2017-12-28T02:46:10.854Z,0
2017-12-28T02:47:11.623Z,0
2017-12-28T02:48:11.598Z,0
2017-12-28T02:49:11.579Z,0
2017-12-28T02:50:11.291Z,0
2017-12-28T02:51:11.274Z,0
2017-12-28T02:52:11.518Z,0
2017-12-28T02:53:10.696Z,0
2017-12-28T02:54:11.471Z,0
2017-12-28T02:55:11.466Z,0
2017-12-28T02:56:11.151Z,0
2017-12-28T02:57:11.664Z,0
2017-12-28T02:58:11.373Z,0
2017-12-28T02:59:10.837Z,0
2017-12-28T03:00:11.595Z,0
2017-12-28T03:01:11.044Z,0
2017-12-28T03:02:10.498Z,0
2017-12-28T03:03:11.266Z,0
2017-12-28T03:04:10.717Z,0
2017-12-28T03:05:11.215Z,0
2017-12-28T03:06:11.198Z,0
2017-12-28T03:07:10.646Z,0
2017-12-28T03:08:10.888Z,0
2017-12-28T03:09:10.606Z,0
2017-12-28T03:10:11.110Z,0
2017-12-28T03:11:11.078Z,0
2017-12-28T03:12:10.532Z,0
2017-12-28T03:13:10.770Z,0
2017-12-28T03:14:10.493Z,0
2017-12-28T03:15:10.989Z,0
2017-12-28T03:16:10.978Z,0
2017-12-28T03:17:10.688Z,0
2017-12-28T03:18:10.659Z,0
2017-12-28T03:19:11.169Z,0
2017-12-28T03:20:10.619Z,0
2017-12-28T03:21:10.601Z,0
2017-12-28T03:22:10.583Z,0
2017-12-28T03:23:10.599Z,0
2017-12-28T03:24:10.798Z,0
2017-12-28T03:25:11.040Z,0
2017-12-28T03:26:10.487Z,0
2017-12-28T03:27:10.200Z,0
2017-12-28T03:28:10.447Z,0
2017-12-28T03:29:10.423Z,0
2017-12-28T03:30:10.936Z,0
2017-12-28T03:31:10.645Z,0
2017-12-28T03:32:09.826Z,0
2017-12-28T03:33:10.062Z,0
2017-12-28T03:34:10.050Z,0
2017-12-28T03:35:10.021Z,0
2017-12-28T03:36:10.527Z,0
2017-12-28T03:37:10.494Z,0
2017-12-28T03:38:09.952Z,0
2017-12-28T03:39:10.725Z,0
2017-12-28T03:40:10.170Z,0
2017-12-28T03:41:10.147Z,0
2017-12-28T03:42:10.402Z,0
2017-12-28T03:43:10.111Z,0
2017-12-28T03:44:10.086Z,0
2017-12-28T03:45:09.795Z,0
2017-12-28T03:46:10.578Z,0
2017-12-28T03:47:10.274Z,0
2017-12-28T03:48:09.731Z,0
2017-12-28T03:49:09.707Z,0
2017-12-28T03:50:10.216Z,0
2017-12-28T03:51:10.235Z,0
2017-12-28T03:52:10.421Z,0
2017-12-28T03:53:10.139Z,0
2017-12-28T03:54:10.112Z,0
2017-12-28T03:55:10.100Z,0
2017-12-28T03:56:10.071Z,0
2017-12-28T03:57:10.048Z,0
2017-12-28T03:58:10.284Z,0
2017-12-28T03:59:09.479Z,0
2017-12-28T04:00:09.759Z,0
2017-12-28T04:01:09.971Z,0
2017-12-28T04:02:09.959Z,0
2017-12-28T04:03:09.650Z,0
2017-12-28T04:04:10.170Z,0
2017-12-28T04:05:09.611Z,0
2017-12-28T04:06:09.594Z,0
2017-12-28T04:07:09.570Z,0
2017-12-28T04:08:09.276Z,0
2017-12-28T04:09:09.787Z,0
2017-12-28T04:10:09.519Z,0
2017-12-28T04:11:09.475Z,0
2017-12-28T04:12:09.720Z,0
2017-12-28T04:13:09.425Z,0
2017-12-28T04:14:09.976Z,0
2017-12-28T04:15:09.920Z,0
2017-12-28T04:16:09.304Z,0
2017-12-28T04:17:09.600Z,0
2017-12-28T04:18:09.857Z,0
2017-12-28T04:19:08.771Z,0
2017-12-28T04:20:09.534Z,0
2017-12-28T04:21:09.243Z,0
2017-12-28T04:22:09.498Z,0
2017-12-28T04:23:08.674Z,0
2017-12-28T04:24:09.184Z,0
2017-12-28T04:25:09.438Z,0
2017-12-28T04:26:09.138Z,0
2017-12-28T04:27:09.381Z,0
2017-12-28T04:28:09.648Z,0
2017-12-28T04:29:09.082Z,0
2017-12-28T04:30:09.060Z,0
2017-12-28T04:31:09.287Z,0
2017-12-28T04:32:09.522Z,0
2017-12-28T04:33:09.504Z,0
2017-12-28T04:34:09.010Z,0
2017-12-28T04:35:08.676Z,0
2017-12-28T04:36:08.909Z,0
2017-12-28T04:37:08.365Z,0
2017-12-28T04:38:09.138Z,0
2017-12-28T04:39:08.579Z,0
2017-12-28T04:40:09.081Z,0
2017-12-28T04:41:09.322Z,0
2017-12-28T04:42:08.778Z,0
2017-12-28T04:43:08.228Z,0
2017-12-28T04:44:09.259Z,0
2017-12-28T04:45:08.716Z,0
2017-12-28T04:46:08.946Z,0
2017-12-28T04:47:08.927Z,0
2017-12-28T04:48:08.643Z,0
2017-12-28T04:49:08.356Z,0
2017-12-28T04:50:08.860Z,0
2017-12-28T04:51:08.566Z,0
2017-12-28T04:52:08.546Z,0
2017-12-28T04:53:08.269Z,0
2017-12-28T04:54:08.767Z,0
2017-12-28T04:55:08.478Z,0
2017-12-28T04:56:08.716Z,0
2017-12-28T04:57:08.452Z,0
2017-12-28T04:58:08.405Z,0
2017-12-28T04:59:08.660Z,0
2017-12-28T05:00:07.838Z,0
2017-12-28T05:01:07.821Z,0
2017-12-28T05:02:08.580Z,0
2017-12-28T05:03:08.303Z,0
2017-12-28T05:04:08.539Z,0
2017-12-28T05:05:08.254Z,0
2017-12-28T05:06:07.705Z,0
2017-12-28T05:07:07.940Z,0
2017-12-28T05:08:08.445Z,0
2017-12-28T05:09:08.686Z,0
2017-12-28T05:10:08.666Z,0
2017-12-28T05:11:08.120Z,0
2017-12-28T05:12:08.089Z,0
2017-12-28T05:13:07.806Z,0
2017-12-28T05:14:07.826Z,0
2017-12-28T05:15:08.288Z,0
2017-12-28T05:16:08.004Z,0
2017-12-28T05:17:07.976Z,0
2017-12-28T05:18:07.689Z,0
2017-12-28T05:19:07.994Z,0
2017-12-28T05:20:07.921Z,0
2017-12-28T05:21:07.623Z,0
2017-12-28T05:22:08.397Z,0
2017-12-28T05:23:07.852Z,0
2017-12-28T05:24:08.095Z,0
2017-12-28T05:25:08.323Z,0
2017-12-28T05:26:07.785Z,0
2017-12-28T05:27:08.012Z,0
2017-12-28T05:28:07.735Z,0
2017-12-28T05:29:07.706Z,0
2017-12-28T05:30:08.216Z,0
2017-12-28T05:31:07.397Z,0
2017-12-28T05:32:07.641Z,0
2017-12-28T05:33:07.615Z,0
2017-12-28T05:34:07.606Z,0
2017-12-28T05:35:08.096Z,0
2017-12-28T05:36:07.299Z,0
2017-12-28T05:37:07.530Z,0
2017-12-28T05:38:07.768Z,0
2017-12-28T05:39:07.744Z,0
2017-12-28T05:40:07.985Z,0
2017-12-28T05:41:07.432Z,0
2017-12-28T05:42:07.412Z,0
2017-12-28T05:43:07.384Z,0
2017-12-28T05:44:07.369Z,0
2017-12-28T05:45:07.606Z,0
2017-12-28T05:46:07.325Z,0
2017-12-28T05:47:07.033Z,0
2017-12-28T05:48:07.297Z,0
2017-12-28T05:49:07.509Z,0
2017-12-28T05:50:07.237Z,0
2017-12-28T05:51:07.208Z,0
2017-12-28T05:52:06.916Z,0
2017-12-28T05:53:07.159Z,0
2017-12-28T05:54:07.664Z,0
2017-12-28T05:55:06.588Z,0
2017-12-28T05:56:07.608Z,0
2017-12-28T05:57:07.066Z,0
2017-12-28T05:58:07.040Z,0
2017-12-28T05:59:07.305Z,0
2017-12-28T06:00:07.276Z,0
2017-12-28T06:01:07.256Z,0
2017-12-28T06:02:07.480Z,0
2017-12-28T06:03:06.676Z,0
2017-12-28T06:04:06.916Z,0
2017-12-28T06:05:06.941Z,0
2017-12-28T06:06:07.130Z,0
2017-12-28T06:07:06.841Z,0
2017-12-28T06:08:07.090Z,0
2017-12-28T06:09:06.880Z,0
2017-12-28T06:10:06.512Z,0
2017-12-28T06:11:06.486Z,0
2017-12-28T06:12:07.276Z,0
2017-12-28T06:13:06.972Z,0
2017-12-28T06:14:06.417Z,0
2017-12-28T06:15:06.657Z,0
2017-12-28T06:16:07.386Z,0
2017-12-28T06:17:06.612Z,0
2017-12-28T06:18:06.860Z,0
2017-12-28T06:19:06.844Z,0
2017-12-28T06:20:06.809Z,0
2017-12-28T06:21:06.527Z,0
2017-12-28T06:22:06.769Z,0
2017-12-28T06:23:06.211Z,0
2017-12-28T06:24:06.190Z,0
2017-12-28T06:25:06.959Z,0
2017-12-28T06:26:06.682Z,0
2017-12-28T06:27:06.646Z,0
2017-12-28T06:28:06.616Z,0
2017-12-28T06:29:06.603Z,0
2017-12-28T06:30:06.320Z,0
2017-12-28T06:31:05.772Z,0
2017-12-28T06:32:05.748Z,0
2017-12-28T06:33:05.994Z,0
2017-12-28T06:34:06.234Z,0
2017-12-28T06:35:06.206Z,0
2017-12-28T06:36:06.186Z,0
2017-12-28T06:37:06.422Z,0
2017-12-28T06:38:06.138Z,0
2017-12-28T06:39:05.845Z,0
2017-12-28T06:40:06.353Z,0
2017-12-28T06:41:06.335Z,0
2017-12-28T06:42:06.576Z,0
2017-12-28T06:43:06.282Z,0
2017-12-28T06:44:06.000Z,0
2017-12-28T06:45:05.979Z,0
2017-12-28T06:46:06.218Z,0
2017-12-28T06:47:05.932Z,0
2017-12-28T06:48:05.915Z,0
2017-12-28T06:49:05.887Z,0
2017-12-28T06:50:06.183Z,0
2017-12-28T06:51:06.120Z,0
2017-12-28T06:52:06.083Z,0
2017-12-28T06:53:05.534Z,0
2017-12-28T06:54:05.258Z,0
2017-12-28T06:55:06.021Z,0
2017-12-28T06:56:05.473Z,0
2017-12-28T06:57:05.967Z,0
2017-12-28T06:58:05.422Z,0
2017-12-28T06:59:05.406Z,0
2017-12-28T07:00:05.644Z,0
2017-12-28T07:01:05.666Z,0
2017-12-28T07:02:05.594Z,0
2017-12-28T07:03:05.835Z,0
2017-12-28T07:04:05.548Z,0
2017-12-28T07:05:05.787Z,0
2017-12-28T07:06:05.250Z,0
2017-12-28T07:07:05.484Z,0
2017-12-28T07:08:05.499Z,0
2017-12-28T07:09:05.974Z,0
2017-12-28T07:10:05.937Z,0
2017-12-28T07:11:05.673Z,0
2017-12-28T07:12:05.628Z,0
2017-12-28T07:13:05.869Z,0
2017-12-28T07:14:04.811Z,0
2017-12-28T07:15:05.564Z,0
2017-12-28T07:16:05.018Z,0
2017-12-28T07:17:05.784Z,0
2017-12-28T07:18:05.228Z,0
2017-12-28T07:19:05.210Z,0
2017-12-28T07:20:05.456Z,0
2017-12-28T07:21:05.161Z,0
2017-12-28T07:22:05.411Z,0
2017-12-28T07:23:05.377Z,0
2017-12-28T07:24:05.104Z,0
2017-12-28T07:25:04.810Z,0
2017-12-28T07:26:05.320Z,0
2017-12-28T07:27:05.021Z,0
2017-12-28T07:28:05.523Z,0
2017-12-28T07:29:05.254Z,0
2017-12-28T07:30:05.226Z,0
2017-12-28T07:31:04.411Z,0
2017-12-28T07:32:05.435Z,0
2017-12-28T07:33:04.898Z,0
2017-12-28T07:34:04.604Z,0
2017-12-28T07:35:05.111Z,0
2017-12-28T07:36:05.091Z,0
2017-12-28T07:37:05.067Z,0
2017-12-28T07:38:04.780Z,5
2017-12-28T07:39:04.757Z,5
2017-12-28T07:40:04.741Z,5
2017-12-28T07:41:04.967Z,5
2017-12-28T07:42:05.225Z,5
2017-12-28T07:43:04.927Z,5
2017-12-28T07:44:04.638Z,5
2017-12-28T07:45:04.621Z,5
2017-12-28T07:46:04.609Z,5
2017-12-28T07:47:04.585Z,5
2017-12-28T07:48:05.075Z,10
2017-12-28T07:49:04.807Z,10
2017-12-28T07:50:04.773Z,10
2017-12-28T07:51:04.486Z,10
2017-12-28T07:52:04.462Z,10
2017-12-28T07:53:04.958Z,10
2017-12-28T07:54:04.675Z,10
2017-12-28T07:55:04.389Z,15
2017-12-28T07:56:04.368Z,15
2017-12-28T07:57:04.350Z,15
2017-12-28T07:58:04.333Z,15
2017-12-28T07:59:04.041Z,15
2017-12-28T08:00:04.278Z,15
2017-12-28T08:01:04.539Z,15
2017-12-28T08:02:03.707Z,20
2017-12-28T08:03:04.227Z,20
2017-12-28T08:04:04.447Z,20
2017-12-28T08:05:04.693Z,20
2017-12-28T08:06:03.880Z,20
2017-12-28T08:07:04.638Z,20
2017-12-28T08:08:04.091Z,20
2017-12-28T08:09:04.334Z,20
2017-12-28T08:10:04.321Z,25
2017-12-28T08:11:03.495Z,25
2017-12-28T08:12:03.750Z,25
2017-12-28T08:13:04.249Z,25
2017-12-28T08:14:03.959Z,30
2017-12-28T08:15:04.457Z,30
2017-12-28T08:16:04.372Z,30
2017-12-28T08:17:03.364Z,30
2017-12-28T08:18:03.339Z,35
2017-12-28T08:19:03.847Z,35
2017-12-28T08:20:04.086Z,35
2017-12-28T08:21:04.323Z,35
2017-12-28T08:22:04.302Z,40
2017-12-28T08:23:03.756Z,40
2017-12-28T08:24:03.734Z,40
2017-12-28T08:25:03.440Z,40
2017-12-28T08:26:03.945Z,45
2017-12-28T08:27:03.408Z,45
2017-12-28T08:28:04.170Z,45
2017-12-28T08:29:03.350Z,45
2017-12-28T08:30:03.850Z,45
2017-12-28T08:31:03.574Z,45
2017-12-28T08:32:03.540Z,45
2017-12-28T08:33:03.261Z,45
2017-12-28T08:34:03.767Z,50
2017-12-28T08:35:03.482Z,50
2017-12-28T08:36:03.448Z,50
2017-12-28T08:37:02.904Z,50
2017-12-28T08:38:03.679Z,50
2017-12-28T08:39:03.116Z,50
2017-12-28T08:40:03.368Z,50
2017-12-28T08:41:03.610Z,50
2017-12-28T08:42:03.580Z,55
2017-12-28T08:43:03.559Z,55
2017-12-28T08:44:03.589Z,50
2017-12-28T08:45:03.775Z,50
2017-12-28T08:46:03.515Z,50
2017-12-28T08:47:03.200Z,50
2017-12-28T08:48:03.175Z,50
2017-12-28T08:49:03.426Z,50
2017-12-28T08:50:03.133Z,55
2017-12-28T08:51:03.117Z,50
2017-12-28T08:52:03.144Z,55
2017-12-28T08:53:03.065Z,55
2017-12-28T08:54:02.794Z,55
2017-12-28T08:55:03.284Z,60
2017-12-28T08:56:02.733Z,60
2017-12-28T08:57:02.716Z,60
2017-12-28T08:58:02.949Z,60
2017-12-28T08:59:03.186Z,60
2017-12-28T09:00:02.907Z,60
2017-12-28T09:01:02.880Z,60
2017-12-28T09:02:03.115Z,60
2017-12-28T09:03:02.575Z,60
2017-12-28T09:04:02.549Z,60
2017-12-28T09:05:03.057Z,60
2017-12-28T09:06:03.300Z,65
2017-12-28T09:07:02.747Z,65
2017-12-28T09:08:02.203Z,65
2017-12-28T09:09:02.704Z,65
2017-12-28T09:10:02.943Z,65
2017-12-28T09:11:02.942Z,65
2017-12-28T09:12:02.392Z,70
2017-12-28T09:13:02.363Z,70
2017-12-28T09:14:02.602Z,70
2017-12-28T09:15:02.324Z,75
2017-12-28T09:16:02.835Z,75
2017-12-28T09:17:02.337Z,75
2017-12-28T09:18:02.516Z,80
2017-12-28T09:19:02.501Z,80
2017-12-28T09:20:02.484Z,80
2017-12-28T09:21:02.207Z,80
2017-12-28T09:22:02.432Z,80
2017-12-28T09:23:02.396Z,80
2017-12-28T09:24:02.111Z,80
2017-12-28T09:25:02.614Z,80
2017-12-28T09:26:02.344Z,85
2017-12-28T09:27:02.050Z,85
2017-12-28T09:28:02.548Z,85
2017-12-28T09:29:02.802Z,90
2017-12-28T09:30:01.977Z,90
2017-12-28T09:31:01.964Z,95
2017-12-28T09:32:01.941Z,95
2017-12-28T09:33:01.922Z,90
2017-12-28T09:34:02.154Z,95
2017-12-28T09:35:02.125Z,100
2017-12-28T09:36:02.102Z,120
2017-12-28T09:37:02.098Z,120
2017-12-28T09:38:02.582Z,120
2017-12-28T09:39:02.047Z,125
2017-12-28T09:40:01.784Z,125
2017-12-28T09:41:02.008Z,120
2017-12-28T09:42:02.251Z,115
2017-12-28T09:43:01.689Z,115
2017-12-28T09:44:01.911Z,115
2017-12-28T09:45:01.913Z,110
2017-12-28T09:46:01.909Z,110
2017-12-28T09:47:02.144Z,110
2017-12-28T09:48:02.105Z,115
2017-12-28T09:49:01.828Z,115
2017-12-28T09:50:01.784Z,115
2017-12-28T09:51:02.027Z,125
2017-12-28T09:52:01.811Z,140
2017-12-28T09:53:01.475Z,155
2017-12-28T09:54:02.235Z,155
2017-12-28T09:55:01.421Z,150
2017-12-28T09:56:01.665Z,150
2017-12-28T09:57:01.900Z,160
2017-12-28T09:58:01.348Z,175
2017-12-28T09:59:01.585Z,175
2017-12-28T10:00:01.839Z,200
2017-12-28T10:01:01.026Z,190
2017-12-28T10:02:01.525Z,185
2017-12-28T10:03:01.537Z,215
2017-12-28T10:04:01.758Z,220
2017-12-28T10:05:01.213Z,220
2017-12-28T10:06:01.738Z,220
2017-12-28T10:07:01.448Z,215
2017-12-28T10:08:01.149Z,210
2017-12-28T10:09:01.681Z,225
2017-12-28T10:10:01.642Z,215
2017-12-28T10:11:01.638Z,205
2017-12-28T10:12:01.372Z,220
2017-12-28T10:13:01.317Z,220
2017-12-28T10:14:01.315Z,225
2017-12-28T10:15:01.275Z,225
2017-12-28T10:16:01.990Z,130
2017-12-28T10:17:01.511Z,280
2017-12-28T10:18:01.221Z,255
2017-12-28T10:19:01.455Z,250
2017-12-28T10:20:01.186Z,240
2017-12-28T10:21:01.701Z,240
2017-12-28T10:22:01.184Z,235
2017-12-28T10:23:00.877Z,215
2017-12-28T10:24:00.606Z,195
2017-12-28T10:25:01.113Z,175
2017-12-28T10:26:00.833Z,185
2017-12-28T10:27:01.078Z,180
2017-12-28T10:28:01.065Z,170
2017-12-28T10:29:00.778Z,225
2017-12-28T10:30:01.006Z,225
2017-12-28T10:31:01.286Z,185
2017-12-28T10:32:01.250Z,170
2017-12-28T10:33:01.231Z,165
2017-12-28T10:34:00.680Z,185
2017-12-28T10:35:01.184Z,210
2017-12-28T10:36:00.375Z,210
2017-12-28T10:37:01.168Z,220
2017-12-28T10:38:00.901Z,215
2017-12-28T10:39:01.115Z,255
2017-12-28T10:40:01.125Z,260
2017-12-28T10:41:00.852Z,245
2017-12-28T10:42:00.837Z,260
2017-12-28T10:43:00.797Z,215
2017-12-28T10:44:00.516Z,210
2017-12-28T10:45:00.759Z,185
2017-12-28T10:46:00.761Z,165
2017-12-28T10:47:00.745Z,180
2017-12-28T10:48:00.450Z,170
2017-12-28T10:49:00.967Z,220
2017-12-28T10:50:00.951Z,225
2017-12-28T10:51:00.934Z,205
2017-12-28T10:52:00.638Z,195
2017-12-28T10:53:00.689Z,215
2017-12-28T10:54:00.348Z,180
2017-12-28T10:55:00.579Z,200
2017-12-28T10:56:00.295Z,195
2017-12-28T10:57:00.531Z,165
2017-12-28T10:58:00.518Z,130
2017-12-28T10:59:00.264Z,130
2017-12-28T11:00:00.507Z,130
2017-12-28T11:00:59.955Z,140
2017-12-28T11:02:00.716Z,165
2017-12-28T11:03:00.447Z,195
2017-12-28T11:04:00.426Z,210
2017-12-28T11:05:00.668Z,245
2017-12-28T11:06:00.379Z,230
2017-12-28T11:07:00.363Z,260
2017-12-28T11:08:00.343Z,225
2017-12-28T11:09:00.599Z,185
2017-12-28T11:10:00.310Z,200
2017-12-28T11:11:00.556Z,205
2017-12-28T11:12:00.269Z,190
2017-12-28T11:13:00.251Z,220
2017-12-28T11:14:00.504Z,245
2017-12-28T11:14:59.951Z,255
2017-12-28T11:15:59.939Z,295
2017-12-28T11:17:00.183Z,320
2017-12-28T11:18:00.170Z,310
2017-12-28T11:18:59.622Z,320
2017-12-28T11:20:00.405Z,260
2017-12-28T11:20:59.888Z,265
2017-12-28T11:22:00.107Z,180
2017-12-28T11:23:00.077Z,175
2017-12-28T11:23:59.799Z,195
2017-12-28T11:24:59.782Z,170
2017-12-28T11:26:00.352Z,210
2017-12-28T11:26:59.781Z,145
2017-12-28T11:27:59.732Z,160
2017-12-28T11:28:59.710Z,175
2017-12-28T11:29:59.959Z,190
2017-12-28T11:30:59.943Z,155
2017-12-28T11:32:00.195Z,160
2017-12-28T11:32:59.645Z,170
2017-12-28T11:34:00.153Z,180
2017-12-28T11:35:00.133Z,155
2017-12-28T11:35:59.857Z,150
2017-12-28T11:36:59.576Z,150
2017-12-28T11:37:59.824Z,135
2017-12-28T11:39:00.807Z,110
2017-12-28T11:40:00.084Z,115
2017-12-28T11:41:00.326Z,125
2017-12-28T11:41:59.783Z,135
2017-12-28T11:43:00.029Z,130
2017-12-28T11:43:59.745Z,135
2017-12-28T11:44:59.712Z,160
2017-12-28T11:45:59.967Z,165
2017-12-28T11:46:59.649Z,155
2017-12-28T11:47:59.644Z,190
2017-12-28T11:48:59.646Z,195
2017-12-28T11:49:59.620Z,190
2017-12-28T11:50:59.834Z,190
2017-12-28T11:51:59.816Z,170
2017-12-28T11:53:00.064Z,145
2017-12-28T11:53:59.830Z,155
2017-12-28T11:54:59.523Z,165
2017-12-28T11:55:59.235Z,185
2017-12-28T11:56:59.202Z,160
2017-12-28T11:57:59.169Z,120
2017-12-28T11:58:59.416Z,105
2017-12-28T11:59:59.433Z,95
2017-12-28T12:00:59.657Z,105
2017-12-28T12:01:59.098Z,100
2017-12-28T12:02:59.073Z,110
2017-12-28T12:03:59.349Z,125
2017-12-28T12:04:59.836Z,140
2017-12-28T12:05:59.034Z,110
2017-12-28T12:06:58.995Z,100
2017-12-28T12:07:59.252Z,95
2017-12-28T12:08:59.497Z,130
2017-12-28T12:09:59.464Z,140
2017-12-28T12:10:59.449Z,140
2017-12-28T12:11:58.898Z,135
2017-12-28T12:12:59.150Z,135
2017-12-28T12:13:59.438Z,125
2017-12-28T12:14:58.575Z,110
2017-12-28T12:15:59.431Z,135
2017-12-28T12:16:59.056Z,175
2017-12-28T12:17:59.089Z,180
2017-12-28T12:18:58.542Z,275
2017-12-28T12:19:59.066Z,320
2017-12-28T12:20:59.063Z,325
2017-12-28T12:21:59.221Z,320
2017-12-28T12:22:59.208Z,355
2017-12-28T12:23:58.997Z,375
2017-12-28T12:24:58.905Z,345
2017-12-28T12:25:59.144Z,355
2017-12-28T12:26:58.869Z,365
2017-12-28T12:27:58.593Z,365
2017-12-28T12:28:58.565Z,355
2017-12-28T12:29:58.816Z,360
2017-12-28T12:30:58.545Z,370
2017-12-28T12:31:58.780Z,350
2017-12-28T12:32:59.041Z,335
2017-12-28T12:33:59.024Z,320
2017-12-28T12:34:58.743Z,300
2017-12-28T12:35:59.031Z,155
2017-12-28T12:36:58.809Z,355
2017-12-28T12:37:58.435Z,340
2017-12-28T12:38:58.422Z,200
2017-12-28T12:39:58.931Z,345
2017-12-28T12:40:58.398Z,180
2017-12-28T12:41:58.636Z,165
2017-12-28T12:42:59.124Z,130
2017-12-28T12:43:58.352Z,130
2017-12-28T12:44:58.647Z,215
2017-12-28T12:45:58.330Z,155
2017-12-28T12:46:58.592Z,115
2017-12-28T12:47:58.297Z,125
2017-12-28T12:48:58.813Z,145
2017-12-28T12:49:58.532Z,140
2017-12-28T12:50:58.508Z,155
2017-12-28T12:51:58.237Z,165
2017-12-28T12:52:58.755Z,165
2017-12-28T12:53:58.466Z,160
2017-12-28T12:54:58.464Z,140
2017-12-28T12:55:58.784Z,165
2017-12-28T12:56:58.419Z,105
2017-12-28T12:57:58.437Z,105
2017-12-28T12:58:58.392Z,100
2017-12-28T12:59:58.652Z,100
2017-12-28T13:00:58.094Z,90
2017-12-28T13:01:58.623Z,80
2017-12-28T13:02:58.322Z,95
2017-12-28T13:03:58.313Z,85
2017-12-28T13:04:58.335Z,85
2017-12-28T13:05:58.793Z,80
2017-12-28T13:06:58.251Z,75
2017-12-28T13:07:58.253Z,75
2017-12-28T13:08:57.955Z,210
2017-12-28T13:09:58.459Z,180
2017-12-28T13:10:58.708Z,120
2017-12-28T13:11:57.900Z,95
2017-12-28T13:12:58.416Z,95
2017-12-28T13:13:58.131Z,105
2017-12-28T13:14:58.102Z,120
2017-12-28T13:15:57.826Z,115
2017-12-28T13:16:57.812Z,105
2017-12-28T13:17:58.051Z,110
2017-12-28T13:18:58.032Z,110
2017-12-28T13:19:58.274Z,125
2017-12-28T13:20:57.732Z,240
2017-12-28T13:21:58.242Z,165
2017-12-28T13:22:58.486Z,105
2017-12-28T13:23:58.202Z,80
2017-12-28T13:24:58.451Z,70
2017-12-28T13:25:58.179Z,85
2017-12-28T13:26:57.881Z,180
2017-12-28T13:27:57.614Z,95
2017-12-28T13:28:57.852Z,80
2017-12-28T13:29:57.297Z,160
2017-12-28T13:30:57.808Z,155
2017-12-28T13:31:57.522Z,175
2017-12-28T13:32:57.506Z,75
2017-12-28T13:33:57.752Z,85
2017-12-28T13:34:57.733Z,195
2017-12-28T13:35:57.983Z,215
2017-12-28T13:36:58.184Z,215
2017-12-28T13:37:57.944Z,190
2017-12-28T13:38:57.666Z,190
2017-12-28T13:39:57.911Z,120
2017-12-28T13:41:12.330Z,210
2017-12-28T13:41:57.340Z,140
2017-12-28T13:42:57.589Z,230
2017-12-28T13:43:57.984Z,240
2017-12-28T13:44:58.248Z,230
2017-12-28T13:45:57.281Z,210
2017-12-28T13:46:57.196Z,200
2017-12-28T13:47:57.519Z,195
2017-12-28T13:48:57.222Z,180
2017-12-28T13:49:57.483Z,155
2017-12-28T13:50:57.720Z,130
2017-12-28T13:51:57.709Z,80
2017-12-28T13:52:57.160Z,75
2017-12-28T13:53:57.668Z,70
2017-12-28T13:54:57.392Z,80
2017-12-28T13:55:57.368Z,80
2017-12-28T13:56:57.363Z,70
2017-12-28T13:57:57.077Z,80
2017-12-28T13:58:57.061Z,95
2017-12-28T13:59:57.042Z,105
2017-12-28T14:00:57.814Z,105
2017-12-28T14:01:57.544Z,100
2017-12-28T14:02:57.248Z,105
2017-12-28T14:03:57.232Z,85
2017-12-28T14:04:57.736Z,80
2017-12-28T14:05:57.456Z,85
2017-12-28T14:06:57.175Z,75
2017-12-28T14:07:57.422Z,75
2017-12-28T14:08:57.132Z,75
2017-12-28T14:09:56.854Z,80
2017-12-28T14:10:56.833Z,85
2017-12-28T14:11:57.081Z,85
2017-12-28T14:12:57.362Z,75
2017-12-28T14:13:57.040Z,70
2017-12-28T14:14:57.288Z,65
2017-12-28T14:15:57.521Z,55
2017-12-28T14:16:57.441Z,50
2017-12-28T14:17:56.961Z,35
2017-12-28T14:18:57.206Z,35
2017-12-28T14:19:57.447Z,35
2017-12-28T14:20:57.434Z,35
2017-12-28T14:21:57.195Z,30
2017-12-28T14:22:56.612Z,25